createdAt,value
2023-07-21T00:00:31.163Z,93653.84
2023-07-21T00:02:57.606Z,93557.94
2023-07-21T00:05:25.459Z,93540.09
2023-07-21T00:07:52.159Z,93665.00
2023-07-21T00:10:18.583Z,93532.28
2023-07-21T00:12:49.129Z,93639.63
2023-07-21T00:15:18.347Z,93525.69
2023-07-21T00:17:48.257Z,93678.72
2023-07-21T00:20:20.872Z,93536.94
2023-07-21T00:22:47.371Z,93589.75
2023-07-21T00:25:13.819Z,93636.28
2023-07-21T00:27:42.570Z,93657.38
2023-07-21T00:30:09.857Z,93650.25
2023-07-21T00:32:37.021Z,93656.44
2023-07-21T00:35:06.384Z,93647.31
2023-07-21T00:37:32.921Z,93659.28
2023-07-21T00:39:59.647Z,93660.66
2023-07-21T00:42:26.249Z,93636.03
2023-07-21T00:44:52.643Z,93537.78
2023-07-21T00:47:19.147Z,93658.28
2023-07-21T00:49:45.748Z,93547.44
2023-07-21T00:52:18.536Z,93651.97
2023-07-21T00:54:48.700Z,93597.38
2023-07-21T00:57:18.794Z,93647.78
2023-07-21T00:59:46.562Z,93643.81
2023-07-21T01:02:13.119Z,93655.00
2023-07-21T01:04:40.767Z,93629.50
2023-07-21T01:07:10.481Z,93528.25
2023-07-21T01:09:39.502Z,93631.13
2023-07-21T01:12:07.439Z,93653.50
2023-07-21T01:14:38.380Z,93468.38
2023-07-21T01:17:08.241Z,93599.28
2023-07-21T01:19:37.409Z,93376.38
2023-07-21T01:22:22.136Z,93633.91
2023-07-21T01:25:08.582Z,93636.25
2023-07-21T01:27:40.931Z,93632.31
2023-07-21T01:30:15.799Z,93480.91
2023-07-21T01:32:45.259Z,93574.06
2023-07-21T01:35:14.137Z,93615.06
2023-07-21T01:37:42.178Z,93363.44
2023-07-21T01:40:11.853Z,93607.91
2023-07-21T01:42:38.685Z,93570.97
2023-07-21T01:45:06.065Z,93588.53
2023-07-21T01:47:36.587Z,93608.53
2023-07-21T01:50:10.662Z,93608.41
2023-07-21T01:52:38.163Z,93593.66
2023-07-21T01:55:08.034Z,93606.69
2023-07-21T01:57:44.890Z,93600.16
2023-07-21T02:00:13.792Z,93353.63
2023-07-21T02:02:53.953Z,93571.19
2023-07-21T02:05:22.160Z,93598.88
2023-07-21T02:07:49.156Z,93607.75
2023-07-21T02:10:15.606Z,93612.50
2023-07-21T02:12:42.186Z,93436.63
2023-07-21T02:15:09.073Z,93611.75
2023-07-21T02:17:36.010Z,93615.63
2023-07-21T02:20:09.763Z,93603.72
2023-07-21T02:22:41.483Z,93601.19
2023-07-21T02:25:10.270Z,93462.03
2023-07-21T02:27:37.404Z,93465.41
2023-07-21T02:30:05.058Z,93440.28
2023-07-21T02:32:31.636Z,93599.50
2023-07-21T02:34:59.710Z,93572.06
2023-07-21T02:37:26.959Z,93601.56
2023-07-21T02:39:53.505Z,93468.63
2023-07-21T02:42:20.085Z,93600.06
2023-07-21T02:44:46.605Z,93449.19
2023-07-21T02:47:16.129Z,93586.44
2023-07-21T02:49:42.528Z,93469.75
2023-07-21T02:52:09.215Z,93467.44
2023-07-21T02:54:35.678Z,93566.66
2023-07-21T02:57:02.794Z,93591.06
2023-07-21T02:59:29.734Z,93584.66
2023-07-21T03:01:57.546Z,93581.78
2023-07-21T03:04:26.746Z,93438.03
2023-07-21T03:06:53.452Z,93608.69
2023-07-21T03:09:20.234Z,93570.50
2023-07-21T03:11:46.706Z,93564.22
2023-07-21T03:14:13.128Z,93545.22
2023-07-21T03:16:40.460Z,93594.25
2023-07-21T03:19:06.899Z,93589.19
2023-07-21T03:21:33.373Z,93449.88
2023-07-21T03:23:59.759Z,93573.63
2023-07-21T03:26:29.020Z,93580.16
2023-07-21T03:28:56.686Z,93579.03
2023-07-21T03:31:23.378Z,93587.13
2023-07-21T03:33:49.950Z,93438.97
2023-07-21T03:36:16.443Z,93566.75
2023-07-21T03:38:42.918Z,93576.41
2023-07-21T03:41:10.518Z,93565.22
2023-07-21T03:43:38.265Z,93418.38
2023-07-21T03:46:06.276Z,93449.97
2023-07-21T03:48:34.065Z,93447.31
2023-07-21T03:51:05.963Z,93577.69
2023-07-21T03:53:36.870Z,93450.75
2023-07-21T03:56:04.601Z,93574.59
2023-07-21T03:58:31.146Z,93436.09
2023-07-21T04:00:59.633Z,93431.25
2023-07-21T04:03:26.492Z,93559.88
2023-07-21T04:05:53.428Z,93566.31
2023-07-21T04:08:20.344Z,93556.56
2023-07-21T04:10:47.349Z,93542.31
2023-07-21T04:13:13.961Z,93559.66
2023-07-21T04:15:40.727Z,93567.22
2023-07-21T04:18:07.244Z,93559.81
2023-07-21T04:20:34.029Z,93528.41
2023-07-21T04:25:36.722Z,93593.03
2023-07-21T04:28:06.675Z,93569.75
2023-07-21T04:30:33.111Z,93469.03
2023-07-21T04:32:59.700Z,93562.44
2023-07-21T04:35:26.214Z,93462.16
2023-07-21T04:37:52.611Z,93597.13
2023-07-21T04:40:21.245Z,93453.28
2023-07-21T04:42:48.927Z,93482.34
2023-07-21T04:45:15.397Z,93595.94
2023-07-21T04:47:42.049Z,93635.19
2023-07-21T04:50:09.722Z,93632.31
2023-07-21T04:52:38.133Z,93525.94
2023-07-21T04:55:06.664Z,93658.97
2023-07-21T04:57:33.592Z,93629.81
2023-07-21T05:00:00.406Z,93499.63
2023-07-21T05:02:29.702Z,93569.94
2023-07-21T05:04:58.713Z,93571.13
2023-07-21T05:07:25.525Z,93555.03
2023-07-21T05:09:52.347Z,93692.63
2023-07-21T05:12:19.378Z,93707.47
2023-07-21T05:14:46.025Z,93714.94
2023-07-21T05:17:12.913Z,93685.53
2023-07-21T05:19:39.548Z,93710.88
2023-07-21T05:22:06.452Z,93684.41
2023-07-21T05:24:32.932Z,93565.38
2023-07-21T05:26:59.406Z,93583.94
2023-07-21T05:29:25.845Z,93662.94
2023-07-21T05:31:53.308Z,93681.03
2023-07-21T05:34:22.160Z,93528.59
2023-07-21T05:36:48.838Z,93668.53
2023-07-21T05:39:15.454Z,93520.16
2023-07-21T05:41:42.106Z,93649.81
2023-07-21T05:44:10.123Z,93661.91
2023-07-21T05:46:40.490Z,93667.91
2023-07-21T05:49:07.643Z,93685.72
2023-07-21T05:51:34.487Z,93655.16
2023-07-21T05:54:01.407Z,93671.47
2023-07-21T05:56:27.961Z,93519.81
2023-07-21T05:58:54.635Z,93539.09
2023-07-21T06:01:22.133Z,93652.41
2023-07-21T06:03:48.664Z,93556.47
2023-07-21T06:06:15.090Z,93631.94
2023-07-21T06:08:41.635Z,93655.69
2023-07-21T06:11:08.215Z,93640.97
2023-07-21T06:13:34.588Z,93561.00
2023-07-21T06:16:01.056Z,93648.00
2023-07-21T06:18:27.445Z,93675.91
2023-07-21T06:20:54.114Z,93638.00
2023-07-21T06:23:21.069Z,93645.91
2023-07-21T06:25:47.593Z,93633.03
2023-07-21T06:28:14.026Z,93625.31
2023-07-21T06:30:40.487Z,93626.16
2023-07-21T06:33:07.642Z,93599.13
2023-07-21T06:35:34.945Z,93495.91
2023-07-21T06:38:01.994Z,93481.88
2023-07-21T06:40:28.393Z,93615.97
2023-07-21T06:42:54.793Z,93606.56
2023-07-21T06:45:21.320Z,93616.38
2023-07-21T06:47:47.765Z,93602.47
2023-07-21T06:50:14.361Z,93514.66
2023-07-21T06:52:40.826Z,93619.72
2023-07-21T06:55:07.539Z,93635.56
2023-07-21T06:57:33.947Z,93503.50
2023-07-21T07:00:00.433Z,93669.72
2023-07-21T07:02:26.857Z,93531.38
2023-07-21T07:04:54.712Z,93678.72
2023-07-21T07:07:21.212Z,93511.97
2023-07-21T07:09:47.591Z,93611.78
2023-07-21T07:12:15.188Z,93605.72
2023-07-21T07:14:41.915Z,93502.28
2023-07-21T07:17:08.310Z,93639.13
2023-07-21T07:19:34.682Z,93631.69
2023-07-21T07:22:01.278Z,93670.66
2023-07-21T07:24:27.954Z,93573.94
2023-07-21T07:26:55.242Z,93538.44
2023-07-21T07:29:22.187Z,93684.38
2023-07-21T07:31:50.328Z,93687.22
2023-07-21T07:34:16.842Z,93693.44
2023-07-21T07:36:43.277Z,93610.84
2023-07-21T07:39:09.870Z,93665.47
2023-07-21T07:41:36.270Z,93664.91
2023-07-21T07:44:02.714Z,93658.84
2023-07-21T07:46:29.188Z,93664.91
2023-07-21T07:48:56.585Z,93672.06
2023-07-21T07:51:24.033Z,93644.31
2023-07-21T07:53:51.136Z,93665.72
2023-07-21T07:56:17.567Z,93663.72
2023-07-21T07:58:44.142Z,93663.34
2023-07-21T08:01:14.236Z,93653.69
2023-07-21T08:03:45.305Z,93625.00
2023-07-21T08:06:12.918Z,93624.66
2023-07-21T08:08:39.590Z,93518.84
2023-07-21T08:11:07.432Z,93644.91
2023-07-21T08:13:34.404Z,93513.88
2023-07-21T08:16:01.597Z,93621.25
2023-07-21T08:18:28.258Z,93648.84
2023-07-21T08:20:54.753Z,93652.94
2023-07-21T08:23:29.445Z,93551.97
2023-07-21T08:25:58.109Z,93509.69
2023-07-21T08:28:24.549Z,93622.50
2023-07-21T08:30:57.503Z,93641.59
2023-07-21T08:33:25.199Z,93440.47
2023-07-21T08:35:51.638Z,93631.19
2023-07-21T08:38:18.084Z,93634.31
2023-07-21T08:40:50.148Z,93630.53
2023-07-21T08:43:17.180Z,93502.13
2023-07-21T08:45:44.753Z,93647.09
2023-07-21T08:48:11.479Z,93504.91
2023-07-21T08:50:39.882Z,93512.81
2023-07-21T08:53:06.333Z,93532.81
2023-07-21T08:55:34.470Z,93589.16
2023-07-21T08:58:01.622Z,93734.38
2023-07-21T09:00:28.867Z,93702.28
2023-07-21T09:03:01.270Z,93708.59
2023-07-21T09:05:27.854Z,93679.91
2023-07-21T09:07:54.463Z,93712.56
2023-07-21T09:10:31.158Z,93709.97
2023-07-21T09:12:57.817Z,93628.25
2023-07-21T09:15:24.288Z,93727.66
2023-07-21T09:17:50.910Z,93731.03
2023-07-21T09:20:19.007Z,93587.22
2023-07-21T09:22:49.623Z,93616.41
2023-07-21T09:25:23.299Z,93636.09
2023-07-21T09:27:54.964Z,93739.31
2023-07-21T09:30:21.687Z,93714.50
2023-07-21T09:32:48.148Z,93694.06
2023-07-21T09:35:15.061Z,93714.78
2023-07-21T09:37:42.198Z,93737.53
2023-07-21T09:40:12.450Z,93638.53
2023-07-21T09:42:40.272Z,93720.41
2023-07-21T09:45:07.406Z,93725.88
2023-07-21T09:47:34.178Z,93622.63
2023-07-21T09:50:01.010Z,93522.56
2023-07-21T09:52:28.528Z,93778.81
2023-07-21T09:55:04.644Z,93609.69
2023-07-21T09:57:35.815Z,93755.97
2023-07-21T10:00:10.845Z,93744.44
2023-07-21T10:02:37.742Z,93738.03
2023-07-21T10:05:05.961Z,93503.00
2023-07-21T10:07:34.188Z,93595.53
2023-07-21T10:10:02.247Z,93614.72
2023-07-21T10:12:47.936Z,93754.00
2023-07-21T10:15:16.379Z,93669.25
2023-07-21T10:17:44.637Z,93745.47
2023-07-21T10:20:13.070Z,93620.28
2023-07-21T10:22:39.483Z,93752.00
2023-07-21T10:25:06.165Z,93774.97
2023-07-21T10:27:32.619Z,93769.88
2023-07-21T10:30:21.808Z,93768.44
2023-07-21T10:32:48.326Z,93773.81
2023-07-21T10:35:42.641Z,93770.19
2023-07-21T10:38:30.430Z,93763.31
2023-07-21T10:40:56.910Z,93746.56
2023-07-21T10:43:23.314Z,93775.22
2023-07-21T10:45:54.950Z,93741.16
2023-07-21T10:48:23.379Z,93786.88
2023-07-21T10:51:00.846Z,93631.41
2023-07-21T10:53:27.479Z,93669.53
2023-07-21T10:55:54.673Z,93625.53
2023-07-21T10:58:21.927Z,93740.41
2023-07-21T11:00:52.513Z,93623.06
2023-07-21T11:03:19.280Z,93601.91
2023-07-21T11:05:46.048Z,93745.47
2023-07-21T11:08:14.359Z,93658.25
2023-07-21T11:10:43.214Z,93751.59
2023-07-21T11:13:09.955Z,93712.06
2023-07-21T11:15:36.482Z,93630.97
2023-07-21T11:18:05.376Z,93634.00
2023-07-21T11:20:31.960Z,93743.09
2023-07-21T11:22:59.970Z,93589.22
2023-07-21T11:25:26.397Z,93741.75
2023-07-21T11:27:53.711Z,93609.88
2023-07-21T11:30:20.318Z,93627.16
2023-07-21T11:32:47.698Z,93612.34
2023-07-21T11:35:14.503Z,93711.66
2023-07-21T11:37:46.211Z,93734.34
2023-07-21T11:40:24.127Z,93651.38
2023-07-21T11:42:50.663Z,93601.75
2023-07-21T11:45:38.571Z,93659.78
2023-07-21T11:48:19.621Z,93702.06
2023-07-21T11:50:53.170Z,93678.31
2023-07-21T11:53:21.704Z,93701.09
2023-07-21T11:55:48.100Z,93700.44
2023-07-21T11:58:14.669Z,93626.56
2023-07-21T12:00:43.183Z,93696.63
2023-07-21T12:03:11.460Z,93584.16
2023-07-21T12:05:38.008Z,93679.63
2023-07-21T12:08:05.039Z,93664.47
2023-07-21T12:10:31.458Z,93699.50
2023-07-21T12:12:58.454Z,93707.44
2023-07-21T12:15:25.022Z,93665.91
2023-07-21T12:17:51.499Z,93692.22
2023-07-21T12:20:18.486Z,93565.94
2023-07-21T12:22:44.993Z,93658.22
2023-07-21T12:25:11.558Z,93686.91
2023-07-21T12:27:38.179Z,93675.81
2023-07-21T12:30:10.827Z,93680.28
2023-07-21T12:32:37.660Z,93685.44
2023-07-21T12:35:06.135Z,93688.50
2023-07-21T12:37:33.773Z,93696.81
2023-07-21T12:40:00.385Z,93681.88
2023-07-21T12:42:29.462Z,93658.94
2023-07-21T12:44:55.997Z,93681.19
2023-07-21T12:47:22.407Z,93677.53
2023-07-21T12:49:48.885Z,93521.59
2023-07-21T12:52:15.310Z,93649.47
2023-07-21T12:54:41.718Z,93572.38
2023-07-21T12:57:08.120Z,93562.66
2023-07-21T12:59:34.519Z,93684.34
2023-07-21T13:02:01.112Z,93692.19
2023-07-21T13:04:27.813Z,93684.53
2023-07-21T13:06:55.145Z,93598.06
2023-07-21T13:09:22.012Z,93702.31
2023-07-21T13:11:49.144Z,93596.06
2023-07-21T13:14:16.556Z,93701.75
2023-07-21T13:16:43.106Z,93685.88
2023-07-21T13:19:10.465Z,93517.75
2023-07-21T13:21:37.023Z,93669.44
2023-07-21T13:24:04.217Z,93675.34
2023-07-21T13:26:30.771Z,93550.25
2023-07-21T13:28:57.224Z,93614.03
2023-07-21T13:31:23.674Z,93686.97
2023-07-21T13:33:51.617Z,93681.31
2023-07-21T13:38:44.338Z,93679.06
2023-07-21T13:41:11.738Z,93677.88
2023-07-21T13:43:38.325Z,93681.63
2023-07-21T13:46:04.808Z,93562.16
2023-07-21T13:48:31.430Z,93673.44
2023-07-21T13:50:57.882Z,93575.94
2023-07-21T13:53:24.287Z,93670.13
2023-07-21T13:55:50.741Z,93664.69
2023-07-21T13:58:17.592Z,93666.09
2023-07-21T14:00:43.969Z,93559.63
2023-07-21T14:03:10.466Z,93610.94
2023-07-21T14:05:37.047Z,93678.13
2023-07-21T14:08:03.640Z,93665.50
2023-07-21T14:10:30.128Z,93573.66
2023-07-21T14:12:57.054Z,93591.59
2023-07-21T14:15:23.520Z,93601.28
2023-07-21T14:17:50.599Z,93683.19
2023-07-21T14:20:17.960Z,93695.56
2023-07-21T14:22:44.682Z,93572.59
2023-07-21T14:25:11.964Z,93582.81
2023-07-21T14:27:38.695Z,93706.50
2023-07-21T14:30:08.621Z,93592.97
2023-07-21T14:32:35.064Z,93727.19
2023-07-21T14:35:01.479Z,93728.88
2023-07-21T14:37:27.898Z,93721.41
2023-07-21T14:39:54.443Z,93612.56
2023-07-21T14:42:21.305Z,93730.69
2023-07-21T14:44:48.053Z,93614.41
2023-07-21T14:47:14.708Z,93605.63
2023-07-21T14:49:41.415Z,93729.91
2023-07-21T14:52:10.554Z,93741.19
2023-07-21T14:54:37.116Z,93730.41
2023-07-21T14:57:03.658Z,93722.56
2023-07-21T14:59:30.146Z,93719.31
2023-07-21T15:01:58.444Z,93719.28
2023-07-21T15:04:26.625Z,93567.94
2023-07-21T15:06:53.337Z,93741.03
2023-07-21T15:09:20.407Z,93713.25
2023-07-21T15:11:46.786Z,93621.75
2023-07-21T15:14:13.167Z,93749.75
2023-07-21T15:16:39.599Z,93594.63
2023-07-21T15:19:06.021Z,93619.75
2023-07-21T15:21:32.435Z,93629.69
2023-07-21T15:23:58.872Z,93699.91
2023-07-21T15:26:26.442Z,93745.38
2023-07-21T15:28:53.090Z,93748.50
2023-07-21T15:31:19.579Z,93744.78
2023-07-21T15:33:46.612Z,93750.44
2023-07-21T15:36:15.682Z,93747.53
2023-07-21T15:38:44.331Z,93743.25
2023-07-21T15:41:10.748Z,93634.47
2023-07-21T15:43:37.181Z,93725.28
2023-07-21T15:46:03.906Z,93730.94
2023-07-21T15:48:31.551Z,93718.78
2023-07-21T15:50:57.969Z,93590.53
2023-07-21T15:53:24.676Z,93732.16
2023-07-21T15:55:51.066Z,93669.28
2023-07-21T15:58:19.630Z,93721.09
2023-07-21T16:00:46.760Z,93609.72
2023-07-21T16:03:13.274Z,93590.22
2023-07-21T16:05:39.739Z,93591.78
2023-07-21T16:08:06.307Z,93608.38
2023-07-21T16:10:32.759Z,93721.91
2023-07-21T16:12:59.177Z,93717.94
2023-07-21T16:15:26.689Z,93726.88
2023-07-21T16:17:53.246Z,93734.09
2023-07-21T16:20:19.863Z,93623.75
2023-07-21T16:22:46.279Z,93753.19
2023-07-21T16:25:12.829Z,93746.06
2023-07-21T16:27:39.304Z,93769.44
2023-07-21T16:30:06.999Z,93759.63
2023-07-21T16:32:33.501Z,93759.28
2023-07-21T16:35:00.029Z,93747.69
2023-07-21T16:37:26.653Z,93629.31
2023-07-21T16:39:56.067Z,93751.78
2023-07-21T16:42:22.603Z,93642.63
2023-07-21T16:44:49.016Z,93744.75
2023-07-21T16:47:15.406Z,93643.41
2023-07-21T16:49:41.923Z,93778.19
2023-07-21T16:52:08.583Z,93777.72
2023-07-21T16:54:35.014Z,93662.84
2023-07-21T16:57:01.538Z,93789.47
2023-07-21T16:59:28.292Z,93686.03
2023-07-21T17:01:54.785Z,93692.56
2023-07-21T17:04:21.338Z,93806.56
2023-07-21T17:06:47.861Z,93801.69
2023-07-21T17:09:16.309Z,93792.31
2023-07-21T17:11:42.809Z,93780.78
2023-07-21T17:14:10.032Z,93672.75
2023-07-21T17:16:36.695Z,93696.41
2023-07-21T17:19:03.885Z,93820.28
2023-07-21T17:21:30.384Z,93801.59
2023-07-21T17:23:56.853Z,93823.34
2023-07-21T17:26:23.300Z,93818.47
2023-07-21T17:28:49.743Z,93837.91
2023-07-21T17:31:16.292Z,93689.59
2023-07-21T17:33:42.736Z,93697.88
2023-07-21T17:36:09.447Z,93692.97
2023-07-21T17:38:35.873Z,93696.09
2023-07-21T17:41:03.662Z,93828.72
2023-07-21T17:43:32.680Z,93793.50
2023-07-21T17:46:01.597Z,93795.78
2023-07-21T17:48:28.258Z,93834.06
2023-07-21T17:50:56.256Z,93845.59
2023-07-21T17:53:23.640Z,93704.34
2023-07-21T17:55:50.072Z,93851.38
2023-07-21T17:58:17.345Z,93722.16
2023-07-21T18:00:44.478Z,93734.97
2023-07-21T18:03:12.404Z,93838.06
2023-07-21T18:05:39.368Z,93813.69
2023-07-21T18:08:06.977Z,93841.97
2023-07-21T18:10:34.820Z,93846.94
2023-07-21T18:13:01.441Z,93763.09
2023-07-21T18:15:34.859Z,93705.47
2023-07-21T18:18:01.583Z,93715.75
2023-07-21T18:20:28.162Z,93857.56
2023-07-21T18:22:56.905Z,93795.19
2023-07-21T18:25:23.282Z,93866.81
2023-07-21T18:27:49.730Z,93727.28
2023-07-21T18:30:16.247Z,93869.25
2023-07-21T18:32:42.880Z,93728.34
2023-07-21T18:35:09.765Z,93745.00
2023-07-21T18:37:36.140Z,93742.34
2023-07-21T18:40:10.744Z,93767.72
2023-07-21T18:42:37.479Z,93879.06
2023-07-21T18:45:04.255Z,93840.19
2023-07-21T18:47:30.706Z,93895.13
2023-07-21T18:49:57.199Z,93896.31
2023-07-21T18:52:23.562Z,93894.84
2023-07-21T18:54:50.089Z,93893.06
2023-07-21T18:57:16.544Z,93900.97
2023-07-21T18:59:42.936Z,93898.34
2023-07-21T19:02:09.419Z,93772.16
2023-07-21T19:04:35.947Z,93769.28
2023-07-21T19:07:02.329Z,93907.09
2023-07-21T19:09:31.606Z,93903.25
2023-07-21T19:11:57.992Z,93857.03
2023-07-21T19:14:24.457Z,93917.41
2023-07-21T19:16:50.964Z,93672.50
2023-07-21T19:19:17.499Z,93818.81
2023-07-21T19:21:43.891Z,93914.09
2023-07-21T19:24:10.517Z,93944.75
2023-07-21T19:26:36.940Z,93934.13
2023-07-21T19:29:04.237Z,93941.94
2023-07-21T19:31:33.989Z,93791.31
2023-07-21T19:34:01.885Z,93918.28
2023-07-21T19:36:28.766Z,93785.09
2023-07-21T19:38:55.200Z,93922.84
2023-07-21T19:41:21.754Z,93819.13
2023-07-21T19:43:48.330Z,93934.13
2023-07-21T19:46:15.028Z,93947.53
2023-07-21T19:48:41.916Z,93942.78
2023-07-21T19:51:15.390Z,93957.25
2023-07-21T19:53:42.561Z,93915.19
2023-07-21T19:56:17.594Z,93960.63
2023-07-21T19:58:45.281Z,93949.28
2023-07-21T20:01:12.346Z,93954.13
2023-07-21T20:03:41.666Z,93858.44
2023-07-21T20:06:09.446Z,93831.50
2023-07-21T20:08:36.410Z,93970.28
2023-07-21T20:11:05.404Z,94010.78
2023-07-21T20:13:32.595Z,94018.75
2023-07-21T20:15:59.317Z,93954.09
2023-07-21T20:18:26.954Z,94025.03
2023-07-21T20:20:54.321Z,93999.69
2023-07-21T20:23:20.930Z,93931.28
2023-07-21T20:25:47.613Z,93999.22
2023-07-21T20:28:17.397Z,93898.91
2023-07-21T20:30:45.419Z,93934.91
2023-07-21T20:33:13.517Z,94016.03
2023-07-21T20:35:44.579Z,94029.00
2023-07-21T20:38:11.570Z,94030.78
2023-07-21T20:40:38.585Z,94037.94
2023-07-21T20:43:05.172Z,94035.03
2023-07-21T20:45:36.260Z,94007.94
2023-07-21T20:48:02.750Z,94048.94
2023-07-21T20:50:36.390Z,94045.97
2023-07-21T20:53:04.652Z,94046.25
2023-07-21T20:55:31.258Z,94046.16
2023-07-21T20:57:58.470Z,94050.66
2023-07-21T21:00:25.202Z,93933.56
2023-07-21T21:02:51.868Z,93924.06
2023-07-21T21:05:19.265Z,94047.03
2023-07-21T21:07:47.185Z,94040.94
2023-07-21T21:10:15.254Z,94066.69
2023-07-21T21:12:41.692Z,94073.25
2023-07-21T21:15:08.632Z,94069.38
2023-07-21T21:17:35.290Z,93940.09
2023-07-21T21:20:01.813Z,94080.78
2023-07-21T21:22:28.470Z,93957.66
2023-07-21T21:24:54.981Z,94087.38
2023-07-21T21:27:21.407Z,94088.84
2023-07-21T21:29:47.765Z,93956.81
2023-07-21T21:32:14.226Z,94101.63
2023-07-21T21:34:40.645Z,94103.19
2023-07-21T21:37:07.554Z,94105.09
2023-07-21T21:39:34.123Z,93981.56
2023-07-21T21:42:00.682Z,93980.28
2023-07-21T21:44:27.088Z,94104.69
2023-07-21T21:46:53.540Z,94110.28
2023-07-21T21:49:20.002Z,94098.69
2023-07-21T21:51:46.390Z,93978.63
2023-07-21T21:54:12.917Z,94110.78
2023-07-21T21:56:39.345Z,94105.53
2023-07-21T21:59:05.715Z,93989.53
2023-07-21T22:01:32.179Z,94103.69
2023-07-21T22:03:58.881Z,94098.34
2023-07-21T22:06:25.520Z,94035.47
2023-07-21T22:08:52.218Z,94018.75
2023-07-21T22:11:18.848Z,94095.91
2023-07-21T22:13:45.222Z,94112.78
2023-07-21T22:16:11.724Z,94114.78
2023-07-21T22:18:39.175Z,94102.00
2023-07-21T22:21:05.609Z,93999.69
2023-07-21T22:23:32.151Z,94111.66
2023-07-21T22:26:04.591Z,94109.91
2023-07-21T22:28:30.974Z,93980.75
2023-07-21T22:30:57.473Z,94126.41
2023-07-21T22:33:23.943Z,94124.63
2023-07-21T22:35:50.544Z,94124.81
2023-07-21T22:38:16.956Z,94123.81
2023-07-21T22:40:44.412Z,94119.97
2023-07-21T22:43:10.840Z,94112.84
2023-07-21T22:45:38.229Z,94017.41
2023-07-21T22:48:05.391Z,94128.97
2023-07-21T22:50:31.883Z,94128.75
2023-07-21T22:52:59.659Z,94098.53
2023-07-21T22:55:26.610Z,94057.47
2023-07-21T22:57:53.173Z,94127.63
2023-07-21T23:00:20.132Z,94097.72
2023-07-21T23:02:46.660Z,94023.34
2023-07-21T23:05:13.474Z,94034.59
2023-07-21T23:07:40.154Z,94132.78
2023-07-21T23:10:07.270Z,93997.81
2023-07-21T23:12:34.788Z,94124.38
2023-07-21T23:15:01.260Z,94079.91
2023-07-21T23:17:27.932Z,94102.88
2023-07-21T23:19:54.429Z,94132.88
2023-07-21T23:22:20.940Z,94007.13
2023-07-21T23:24:47.618Z,94137.56
2023-07-21T23:27:14.297Z,94129.31
2023-07-21T23:29:40.889Z,93998.53
2023-07-21T23:32:08.277Z,94048.69
2023-07-21T23:34:34.838Z,94020.69
2023-07-21T23:37:01.256Z,94012.94
2023-07-21T23:39:28.726Z,93983.22
2023-07-21T23:41:55.157Z,94128.53
2023-07-21T23:44:21.616Z,93987.03
2023-07-21T23:46:48.043Z,94005.66
2023-07-21T23:49:14.442Z,94123.06
2023-07-21T23:51:40.828Z,94129.66
2023-07-21T23:54:07.309Z,94144.72
2023-07-21T23:56:33.850Z,94108.41
2023-07-21T23:59:00.227Z,94115.78
